GRJ weather

George Airport
George, Western Cape, South Africa

Public forecast

Using degrees Celsius for public forecast. Weather courtesy of forecast.io.

Current aviation weather report (METAR) for George Airport

Retrieved 2019/10/14 17:00 UTC (12 minutes ago):

FAGG 141700Z VRB01KT 9999 FEW032 18/14 Q1017

Aviation forecast (TAF) for George Airport

Retrieved 2019/10/14 12:00 UTC (5 hours ago):

TAF FAGG 141000Z 1412/1512 21018KT CAVOK TX23/1412Z TN12/1504Z FM141500 24015KT 9999 BKN025 BECMG 1419/1421 30008KT FM150800 18006KT CAVOK